Time;durP1;ratioP1;P1;durP2;ratioP2;P2;SDS_P1;SDS_P2;PMS_P1;PMS_P2;Temp;Humidity;BMP_temperature;BMP_pressure;BME280_temperature;BME280_humidity;BME280_pressure;Samples;Min_cycle;Max_cycle;Signal;HPM_P1;HPM_P2
2023/05/04 00:01:42;;;;;;;10.68;5.70;;;3.80;90.30;;;;;;4989709;28;21515;-77
2023/05/04 00:04:08;;;;;;;9.00;5.60;;;3.80;90.50;;;;;;4991480;28;20048;-76
2023/05/04 00:06:33;;;;;;;12.77;6.47;;;3.80;90.60;;;;;;4966732;28;20114;-77
2023/05/04 00:08:58;;;;;;;15.85;6.78;;;3.80;90.60;;;;;;4988035;28;20038;-76
2023/05/04 00:11:24;;;;;;;16.75;6.93;;;3.80;90.70;;;;;;4991543;28;20027;-77
2023/05/04 00:13:50;;;;;;;13.00;5.88;;;3.80;90.60;;;;;;4989227;28;20451;-76
2023/05/04 00:16:15;;;;;;;12.45;6.13;;;3.70;90.40;;;;;;4990520;28;20367;-77
2023/05/04 00:18:41;;;;;;;12.80;5.30;;;3.70;90.40;;;;;;4990585;28;20048;-76
2023/05/04 00:21:06;;;;;;;15.20;6.75;;;3.70;90.60;;;;;;4993829;28;20409;-76
2023/05/04 00:23:32;;;;;;;12.70;5.78;;;3.70;90.90;;;;;;4989128;28;20037;-77
2023/05/04 00:25:58;;;;;;;9.82;5.82;;;3.60;91.10;;;;;;4990575;28;20033;-77
2023/05/04 00:28:24;;;;;;;16.85;6.32;;;3.60;91.20;;;;;;4989157;28;20566;-76
2023/05/04 00:30:52;;;;;;;14.55;5.45;;;3.60;91.10;;;;;;4990446;28;20050;-77
2023/05/04 00:33:18;;;;;;;12.13;6.00;;;3.60;91.40;;;;;;4992581;28;20046;-76
2023/05/04 00:35:43;;;;;;;13.57;5.85;;;3.70;91.50;;;;;;4988654;28;20030;-76
2023/05/04 00:38:09;;;;;;;10.85;5.18;;;3.70;91.60;;;;;;4984668;28;20451;-77
2023/05/04 00:40:34;;;;;;;14.52;5.28;;;3.70;91.60;;;;;;4988328;28;20041;-76
2023/05/04 00:43:00;;;;;;;13.90;5.63;;;3.60;91.80;;;;;;4993417;28;20112;-77
2023/05/04 00:45:26;;;;;;;11.23;5.68;;;3.60;91.60;;;;;;4993073;28;20042;-76
2023/05/04 00:47:52;;;;;;;9.52;5.55;;;3.60;91.70;;;;;;4989720;28;20038;-76
2023/05/04 00:50:18;;;;;;;12.13;5.07;;;3.60;91.60;;;;;;4982837;28;20037;-76
2023/05/04 00:52:45;;;;;;;12.32;5.65;;;3.70;91.80;;;;;;4983422;28;20039;-76
2023/05/04 00:55:11;;;;;;;10.73;5.25;;;3.70;91.80;;;;;;4999348;28;20367;-77
2023/05/04 00:57:38;;;;;;;16.48;5.25;;;3.80;91.80;;;;;;5001990;28;20026;-76
2023/05/04 01:00:04;;;;;;;17.98;5.53;;;3.90;91.90;;;;;;4994914;28;20802;-77
2023/05/04 01:02:30;;;;;;;12.85;4.78;;;4.00;91.70;;;;;;4995165;28;20030;-76
2023/05/04 01:04:55;;;;;;;15.82;5.53;;;4.10;91.50;;;;;;5003562;28;20444;-77
2023/05/04 01:07:59;;;;;;;14.43;4.85;;;4.10;91.10;;;;;;4989513;28;20034;-75
2023/05/04 01:10:39;;;;;;;8.82;4.85;;;4.10;91.00;;;;;;4988488;28;20399;-76
2023/05/04 01:13:16;;;;;;;15.73;5.10;;;4.20;91.10;;;;;;5013296;28;20038;-76
2023/05/04 01:15:42;;;;;;;9.75;4.70;;;4.20;90.90;;;;;;4994471;28;20037;-76
2023/05/04 01:18:08;;;;;;;10.50;4.25;;;4.20;90.80;;;;;;4992915;28;20027;-76
2023/05/04 01:20:34;;;;;;;12.70;4.55;;;4.30;90.50;;;;;;4995645;28;20459;-77
2023/05/04 01:23:00;;;;;;;13.60;4.63;;;4.20;90.30;;;;;;4990302;28;20026;-77
2023/05/04 01:25:31;;;;;;;11.35;4.05;;;4.20;90.20;;;;;;4997464;28;20455;-77
2023/05/04 01:28:05;;;;;;;11.57;4.20;;;4.30;90.20;;;;;;4992925;28;20027;-76
2023/05/04 01:30:42;;;;;;;10.20;3.70;;;4.30;90.10;;;;;;4995175;28;20081;-77
2023/05/04 01:33:08;;;;;;;12.30;4.50;;;4.30;90.00;;;;;;4989906;28;20042;-77
2023/05/04 01:35:34;;;;;;;8.98;3.80;;;4.30;90.10;;;;;;4990618;28;20550;-75
2023/05/04 01:38:01;;;;;;;9.15;3.97;;;4.40;90.10;;;;;;4988206;28;20084;-76
2023/05/04 01:40:26;;;;;;;11.63;4.55;;;4.40;90.10;;;;;;4997679;28;20037;-77
2023/05/04 01:42:52;;;;;;;12.55;4.15;;;4.50;90.00;;;;;;5003816;28;20035;-76
2023/05/04 01:45:17;;;;;;;14.02;3.83;;;4.60;89.60;;;;;;4983662;28;20446;-76
2023/05/04 01:47:43;;;;;;;10.00;3.40;;;4.70;89.20;;;;;;4988490;28;20034;-76
2023/05/04 01:50:09;;;;;;;12.82;3.92;;;4.70;89.00;;;;;;5000374;28;20498;-76
2023/05/04 01:52:34;;;;;;;12.40;3.88;;;4.70;89.10;;;;;;4989916;28;20039;-76
2023/05/04 01:55:00;;;;;;;10.65;3.70;;;4.60;89.00;;;;;;4991918;28;20022;-76
2023/05/04 01:57:25;;;;;;;13.45;3.75;;;4.70;88.90;;;;;;4991556;28;20040;-76
2023/05/04 01:59:51;;;;;;;10.07;3.38;;;4.80;88.80;;;;;;4988740;28;20481;-77
2023/05/04 02:02:16;;;;;;;10.40;3.45;;;4.80;88.80;;;;;;4987049;28;20038;-76
2023/05/04 02:04:42;;;;;;;11.45;3.70;;;4.70;88.70;;;;;;4989319;28;20046;-76
2023/05/04 02:07:07;;;;;;;8.32;3.33;;;4.80;88.70;;;;;;4978586;28;20066;-76
2023/05/04 02:09:34;;;;;;;13.95;3.63;;;4.80;88.80;;;;;;4990285;28;20027;-77
2023/05/04 02:11:59;;;;;;;8.55;3.47;;;4.90;88.20;;;;;;4988197;28;20351;-76
2023/05/04 02:14:25;;;;;;;10.20;3.42;;;4.90;88.00;;;;;;4994101;28;20041;-76
2023/05/04 02:16:51;;;;;;;11.77;3.45;;;5.00;87.90;;;;;;4989033;28;20393;-76
2023/05/04 02:19:16;;;;;;;9.55;3.35;;;5.00;88.20;;;;;;4985800;28;20037;-76
2023/05/04 02:21:42;;;;;;;9.90;3.28;;;5.00;87.70;;;;;;4989250;28;20030;-76
2023/05/04 02:24:08;;;;;;;15.30;3.47;;;5.00;87.80;;;;;;4997266;28;20042;-76
2023/05/04 02:26:35;;;;;;;11.00;3.65;;;5.00;87.80;;;;;;4989514;28;20375;-76
2023/05/04 02:29:02;;;;;;;9.60;3.08;;;5.00;88.00;;;;;;4988591;28;20461;-76
2023/05/04 02:31:28;;;;;;;11.07;3.95;;;4.90;87.90;;;;;;4986570;28;20310;-76
2023/05/04 02:33:53;;;;;;;11.68;3.22;;;4.80;88.00;;;;;;4986742;28;20038;-76
2023/05/04 02:36:19;;;;;;;9.30;3.30;;;4.90;87.90;;;;;;4983855;28;20030;-76
2023/05/04 02:38:45;;;;;;;10.60;3.50;;;4.90;87.80;;;;;;4991722;28;20037;-76
2023/05/04 02:41:10;;;;;;;10.45;3.25;;;5.00;87.60;;;;;;4988452;28;20279;-77
2023/05/04 02:43:36;;;;;;;6.70;3.03;;;5.00;87.60;;;;;;4990690;28;20072;-77
2023/05/04 02:46:01;;;;;;;10.25;3.25;;;5.00;87.50;;;;;;4987400;28;20026;-77
2023/05/04 02:48:27;;;;;;;10.10;3.00;;;5.00;87.40;;;;;;4983078;28;20022;-76
2023/05/04 02:50:52;;;;;;;8.30;2.92;;;5.00;87.20;;;;;;4983988;28;20189;-76
2023/05/04 02:53:18;;;;;;;10.95;3.10;;;5.00;87.20;;;;;;4988093;28;20033;-77
2023/05/04 02:55:43;;;;;;;8.55;3.13;;;5.00;87.20;;;;;;4991477;28;20030;-77
2023/05/04 02:58:09;;;;;;;10.60;3.33;;;5.00;87.10;;;;;;4991295;28;20459;-77
2023/05/04 03:00:34;;;;;;;9.32;3.08;;;4.90;87.30;;;;;;4988067;28;20034;-76
2023/05/04 03:03:00;;;;;;;9.40;3.28;;;4.80;87.60;;;;;;4989850;28;20034;-77
2023/05/04 03:05:26;;;;;;;11.10;3.17;;;4.80;87.70;;;;;;4987882;28;20035;-76
2023/05/04 03:07:51;;;;;;;8.65;3.55;;;4.80;87.90;;;;;;4986190;28;20033;-77
2023/05/04 03:10:17;;;;;;;10.18;2.85;;;4.70;88.00;;;;;;4991925;28;20092;-76
2023/05/04 03:12:43;;;;;;;8.43;3.47;;;4.60;88.20;;;;;;4989707;28;20109;-77
2023/05/04 03:15:09;;;;;;;8.10;3.17;;;4.70;88.20;;;;;;4991939;28;20506;-76
2023/05/04 03:17:35;;;;;;;5.55;2.85;;;4.70;88.20;;;;;;4984711;28;20026;-76
2023/05/04 03:20:00;;;;;;;12.52;3.25;;;4.70;88.50;;;;;;4986741;28;20490;-76
2023/05/04 03:22:25;;;;;;;12.43;3.17;;;4.70;88.30;;;;;;4971825;28;20026;-76
2023/05/04 03:24:51;;;;;;;5.97;2.55;;;4.60;88.20;;;;;;4990130;28;20510;-77
2023/05/04 03:27:16;;;;;;;10.57;3.17;;;4.70;88.30;;;;;;4984065;28;20040;-76
2023/05/04 03:29:42;;;;;;;12.25;3.10;;;4.60;88.30;;;;;;4988884;28;20054;-76
2023/05/04 03:32:07;;;;;;;10.05;3.25;;;4.60;88.20;;;;;;4984296;28;20026;-76
2023/05/04 03:34:33;;;;;;;7.70;3.17;;;4.60;88.20;;;;;;4992101;28;20034;-77
2023/05/04 03:36:58;;;;;;;13.35;3.20;;;4.70;88.00;;;;;;4983549;28;20461;-77
2023/05/04 03:39:24;;;;;;;9.02;3.30;;;4.80;88.10;;;;;;4987829;28;20030;-76
2023/05/04 03:41:51;;;;;;;7.95;3.20;;;4.80;87.70;;;;;;4976521;28;20126;-76
2023/05/04 03:44:17;;;;;;;7.28;2.88;;;4.90;87.60;;;;;;4996566;28;20041;-76
2023/05/04 03:46:42;;;;;;;7.57;3.13;;;4.80;87.60;;;;;;4982456;28;20027;-76
2023/05/04 03:49:08;;;;;;;10.20;3.42;;;4.80;87.80;;;;;;4987849;28;20130;-77
2023/05/04 03:51:33;;;;;;;12.65;2.92;;;4.90;87.90;;;;;;4987488;28;20049;-76
2023/05/04 03:53:59;;;;;;;14.07;3.13;;;4.80;87.70;;;;;;5004419;28;20030;-77
2023/05/04 03:56:25;;;;;;;9.25;2.97;;;4.80;87.90;;;;;;4993260;28;20038;-76
2023/05/04 03:58:50;;;;;;;11.55;3.17;;;4.90;87.60;;;;;;4993170;28;20037;-77
2023/05/04 04:01:16;;;;;;;9.07;3.63;;;4.90;87.70;;;;;;4982125;28;20486;-76
2023/05/04 04:03:41;;;;;;;9.50;3.10;;;4.90;87.70;;;;;;4990096;28;20046;-76
2023/05/04 04:06:08;;;;;;;10.75;3.42;;;4.90;87.60;;;;;;4990297;28;20038;-76
2023/05/04 04:08:34;;;;;;;8.35;3.25;;;5.00;87.60;;;;;;4999353;28;20137;-76
2023/05/04 04:10:59;;;;;;;8.10;3.33;;;5.00;87.40;;;;;;4991309;28;20046;-77
2023/05/04 04:13:26;;;;;;;10.15;3.35;;;5.00;87.60;;;;;;4991998;28;20023;-76
2023/05/04 04:15:52;;;;;;;10.05;2.90;;;5.10;87.10;;;;;;4989494;28;20069;-76
2023/05/04 04:18:17;;;;;;;7.63;3.25;;;5.10;87.00;;;;;;4984311;28;20062;-77
2023/05/04 04:20:43;;;;;;;6.05;2.97;;;5.20;86.60;;;;;;4978525;28;20081;-73
2023/05/04 04:23:09;;;;;;;6.53;2.60;;;5.20;86.60;;;;;;4976641;28;20041;-73
2023/05/04 04:25:35;;;;;;;9.00;3.28;;;5.30;86.80;;;;;;4982126;28;20109;-74
2023/05/04 04:28:00;;;;;;;9.65;3.45;;;5.30;86.40;;;;;;4975297;28;20480;-70
2023/05/04 04:30:26;;;;;;;8.02;2.72;;;5.40;86.30;;;;;;4959661;28;20062;-74
2023/05/04 04:32:53;;;;;;;7.22;2.75;;;5.40;86.50;;;;;;4973492;28;20065;-75
2023/05/04 04:35:19;;;;;;;7.65;2.65;;;5.50;86.40;;;;;;4977935;28;20027;-75
2023/05/04 04:37:44;;;;;;;7.88;2.83;;;5.60;86.10;;;;;;4973998;28;20038;-75
2023/05/04 04:40:10;;;;;;;7.45;2.63;;;5.60;85.90;;;;;;4979036;28;20022;-75
2023/05/04 04:42:36;;;;;;;7.18;2.50;;;5.70;85.70;;;;;;4958411;28;20740;-75
2023/05/04 04:45:04;;;;;;;10.85;2.67;;;5.80;85.30;;;;;;4979994;28;20034;-74
2023/05/04 04:47:30;;;;;;;15.50;2.72;;;5.80;85.20;;;;;;4973625;28;20089;-75
2023/05/04 04:49:56;;;;;;;7.35;2.72;;;5.90;84.80;;;;;;4994836;28;20410;-75
2023/05/04 04:52:22;;;;;;;8.07;2.78;;;6.00;84.20;;;;;;4992492;28;20030;-74
2023/05/04 04:54:48;;;;;;;9.27;2.90;;;6.10;84.30;;;;;;4997632;28;20076;-75
2023/05/04 04:57:13;;;;;;;9.02;2.30;;;6.10;83.60;;;;;;4983662;28;20038;-75
2023/05/04 04:59:39;;;;;;;11.20;2.60;;;6.10;83.80;;;;;;4992299;28;20042;-75
2023/05/04 05:02:05;;;;;;;6.03;2.55;;;6.20;82.90;;;;;;4992327;28;20459;-75
2023/05/04 05:04:30;;;;;;;10.90;2.40;;;6.20;82.90;;;;;;4989534;28;20027;-75
2023/05/04 05:06:56;;;;;;;8.73;2.22;;;6.30;82.80;;;;;;4988131;28;20069;-75
2023/05/04 05:09:21;;;;;;;5.85;2.20;;;6.30;82.70;;;;;;4989080;28;20027;-77
2023/05/04 05:11:47;;;;;;;9.63;2.30;;;6.40;82.20;;;;;;4990173;28;20026;-76
2023/05/04 05:14:12;;;;;;;7.28;2.28;;;6.50;82.10;;;;;;4989450;28;20438;-77
2023/05/04 05:16:38;;;;;;;6.15;2.22;;;6.50;82.10;;;;;;4993530;28;20030;-76
2023/05/04 05:19:03;;;;;;;8.73;2.53;;;6.50;81.80;;;;;;4989849;28;20037;-76
2023/05/04 05:21:29;;;;;;;8.80;2.72;;;6.60;81.60;;;;;;4990360;28;20042;-76
2023/05/04 05:23:54;;;;;;;8.25;2.35;;;6.60;81.70;;;;;;4990377;28;20038;-76
2023/05/04 05:26:20;;;;;;;8.25;2.70;;;6.70;81.60;;;;;;4991556;28;20022;-75
2023/05/04 05:28:46;;;;;;;9.25;2.60;;;6.70;81.60;;;;;;4994031;28;20082;-79
2023/05/04 05:31:11;;;;;;;9.70;2.40;;;6.80;81.30;;;;;;5002135;28;20443;-79
2023/05/04 05:33:39;;;;;;;6.30;2.42;;;6.80;81.20;;;;;;4992024;28;20034;-79
2023/05/04 05:36:04;;;;;;;11.02;2.50;;;6.90;80.80;;;;;;4991261;28;20367;-79
2023/05/04 05:38:30;;;;;;;6.70;2.67;;;7.00;81.30;;;;;;4982320;28;20033;-76
2023/05/04 05:40:56;;;;;;;6.72;2.35;;;7.00;81.00;;;;;;4986843;28;20038;-76
2023/05/04 05:43:21;;;;;;;8.43;2.28;;;7.00;80.10;;;;;;4991197;28;20490;-76
2023/05/04 05:45:47;;;;;;;10.15;2.30;;;7.10;80.20;;;;;;4990641;28;20033;-76
2023/05/04 05:48:13;;;;;;;10.30;2.92;;;7.20;80.70;;;;;;4988199;28;20443;-76
2023/05/04 05:50:38;;;;;;;6.93;2.05;;;7.30;79.50;;;;;;4989035;28;20625;-76
2023/05/04 05:53:04;;;;;;;8.65;2.25;;;7.50;80.00;;;;;;4990900;28;20026;-76
2023/05/04 05:55:29;;;;;;;5.65;2.17;;;7.50;79.00;;;;;;4975213;28;20340;-76
2023/05/04 05:57:55;;;;;;;7.10;2.63;;;7.50;78.50;;;;;;4991884;28;20093;-76
2023/05/04 06:00:20;;;;;;;7.55;2.47;;;7.80;79.30;;;;;;4991842;28;20030;-75
2023/05/04 06:02:46;;;;;;;9.15;2.72;;;7.90;78.40;;;;;;4990758;28;20042;-76
2023/05/04 06:05:11;;;;;;;6.13;2.22;;;8.10;79.40;;;;;;4989940;28;20084;-76
2023/05/04 06:07:37;;;;;;;10.73;2.78;;;8.10;78.20;;;;;;4992693;28;20126;-75
2023/05/04 06:10:03;;;;;;;7.30;2.40;;;8.20;77.60;;;;;;4986015;28;20030;-75
2023/05/04 06:12:28;;;;;;;6.63;2.28;;;8.30;78.10;;;;;;4982621;28;20534;-75
2023/05/04 06:14:54;;;;;;;9.30;2.40;;;8.50;78.30;;;;;;4987147;28;20034;-76
2023/05/04 06:17:20;;;;;;;10.50;2.28;;;8.60;77.30;;;;;;4973627;28;20018;-75
2023/05/04 06:19:46;;;;;;;8.25;2.60;;;8.80;77.50;;;;;;4965628;28;20034;-75
2023/05/04 06:22:12;;;;;;;7.75;2.80;;;8.80;77.30;;;;;;4991814;28;20018;-76
2023/05/04 06:24:37;;;;;;;9.68;2.30;;;8.90;76.40;;;;;;4992904;28;20096;-75
2023/05/04 06:27:03;;;;;;;9.65;2.33;;;9.00;76.50;;;;;;4989907;28;20539;-76
2023/05/04 06:29:28;;;;;;;6.32;2.20;;;9.10;74.90;;;;;;4985421;28;20045;-76
2023/05/04 06:31:55;;;;;;;11.18;2.30;;;9.10;75.00;;;;;;4979526;28;20095;-76
2023/05/04 06:34:20;;;;;;;6.18;2.50;;;9.10;74.10;;;;;;4978265;28;20448;-76
2023/05/04 06:36:47;;;;;;;7.18;2.08;;;9.00;74.70;;;;;;4970986;28;20026;-76
2023/05/04 06:39:13;;;;;;;10.10;2.58;;;9.20;74.00;;;;;;4972561;28;20030;-75
2023/05/04 06:41:39;;;;;;;9.25;2.42;;;9.30;74.30;;;;;;4973552;28;20105;-76
2023/05/04 06:44:05;;;;;;;7.05;2.33;;;9.50;72.70;;;;;;4971336;28;20126;-76
2023/05/04 06:46:32;;;;;;;7.20;2.40;;;9.60;73.20;;;;;;4971588;28;20479;-76
2023/05/04 06:48:58;;;;;;;8.05;2.40;;;9.70;72.70;;;;;;4969009;28;20026;-76
2023/05/04 06:51:23;;;;;;;6.57;2.08;;;9.80;73.80;;;;;;4972108;28;20037;-76
2023/05/04 06:53:49;;;;;;;8.55;2.42;;;9.90;73.20;;;;;;4970278;28;20135;-76
2023/05/04 06:56:15;;;;;;;8.65;2.03;;;10.30;74.40;;;;;;4967625;28;20031;-76
2023/05/04 06:58:41;;;;;;;9.13;2.03;;;10.50;72.30;;;;;;4974032;28;20064;-76
2023/05/04 07:01:07;;;;;;;10.25;2.25;;;10.80;71.40;;;;;;4969494;28;20050;-77
2023/05/04 07:03:33;;;;;;;7.40;1.92;;;10.80;71.20;;;;;;4967777;28;20081;-76
2023/05/04 07:05:59;;;;;;;8.05;2.40;;;10.90;70.90;;;;;;4968682;28;20468;-75
2023/05/04 07:08:24;;;;;;;13.07;2.75;;;11.00;69.60;;;;;;4970724;28;20037;-76
2023/05/04 07:10:50;;;;;;;10.70;2.33;;;11.10;68.40;;;;;;4966573;28;20034;-75
2023/05/04 07:13:15;;;;;;;9.85;2.45;;;11.10;68.90;;;;;;4969660;28;20035;-76
2023/05/04 07:15:41;;;;;;;9.05;2.42;;;11.50;68.50;;;;;;4970408;28;20122;-76
2023/05/04 07:18:07;;;;;;;6.65;2.22;;;11.90;68.60;;;;;;4968399;28;20073;-76
2023/05/04 07:20:32;;;;;;;9.65;2.47;;;11.80;66.40;;;;;;4967462;28;20054;-76
2023/05/04 07:22:57;;;;;;;10.55;2.00;;;12.00;65.90;;;;;;4968386;28;20034;-76
2023/05/04 07:25:26;;;;;;;7.78;1.77;;;12.00;65.40;;;;;;4968980;28;20035;-75
2023/05/04 07:27:52;;;;;;;7.10;1.80;;;12.60;65.50;;;;;;4970520;28;20050;-76
2023/05/04 07:30:19;;;;;;;4.20;1.80;;;12.30;64.10;;;;;;4988292;28;20081;-77
2023/05/04 07:32:45;;;;;;;7.30;1.90;;;12.50;64.20;;;;;;4994072;28;20073;-76
2023/05/04 07:35:11;;;;;;;9.75;2.33;;;12.60;63.90;;;;;;4993203;28;20451;-75
2023/05/04 07:37:37;;;;;;;4.72;1.73;;;12.90;63.40;;;;;;4992101;28;20519;-76
2023/05/04 07:40:04;;;;;;;6.15;2.30;;;13.00;63.60;;;;;;4993884;28;20030;-77
2023/05/04 07:42:31;;;;;;;8.75;1.83;;;12.60;62.70;;;;;;4990769;28;20047;-77
2023/05/04 07:44:56;;;;;;;9.13;2.05;;;13.20;61.90;;;;;;4987179;28;20030;-76
2023/05/04 07:47:22;;;;;;;6.20;1.80;;;13.70;61.90;;;;;;4991891;28;20053;-76
2023/05/04 07:49:47;;;;;;;9.43;2.25;;;13.70;58.60;;;;;;4993319;28;20344;-76
2023/05/04 07:52:13;;;;;;;7.85;1.85;;;13.70;59.50;;;;;;4990059;28;20042;-76
2023/05/04 07:54:38;;;;;;;8.18;2.00;;;14.10;58.60;;;;;;4989940;28;20049;-75
2023/05/04 07:57:04;;;;;;;6.68;1.90;;;14.10;60.30;;;;;;4993711;28;20085;-76
2023/05/04 07:59:30;;;;;;;6.50;2.17;;;14.60;58.70;;;;;;4994800;28;20036;-76
2023/05/04 08:01:56;;;;;;;7.20;1.70;;;14.60;58.50;;;;;;4991941;28;20105;-76
2023/05/04 08:04:21;;;;;;;8.82;2.38;;;14.60;57.30;;;;;;4985557;28;20112;-76
2023/05/04 08:06:48;;;;;;;7.05;1.90;;;14.50;58.00;;;;;;4990011;28;20375;-76
2023/05/04 08:09:18;;;;;;;5.63;1.90;;;14.60;58.20;;;;;;4989628;28;20027;-77
2023/05/04 08:11:45;;;;;;;7.22;1.92;;;15.00;58.50;;;;;;4986724;28;20410;-76
2023/05/04 08:14:10;;;;;;;4.93;1.45;;;14.70;57.60;;;;;;4990300;28;20093;-76
2023/05/04 08:16:36;;;;;;;5.00;1.42;;;15.10;56.50;;;;;;4993881;28;20034;-76
2023/05/04 08:19:01;;;;;;;4.75;1.85;;;15.00;56.40;;;;;;4988535;28;20371;-76
2023/05/04 08:21:27;;;;;;;6.78;1.50;;;15.10;57.50;;;;;;4992042;28;20359;-76
2023/05/04 08:23:53;;;;;;;7.50;1.42;;;15.10;54.20;;;;;;4995548;28;20056;-76
2023/05/04 08:26:19;;;;;;;7.85;1.50;;;15.20;54.40;;;;;;4987085;28;20035;-76
2023/05/04 08:28:45;;;;;;;5.65;1.60;;;15.00;52.90;;;;;;4992972;28;20423;-76
2023/05/04 08:31:14;;;;;;;6.40;1.95;;;15.20;55.40;;;;;;4992880;28;20030;-76
2023/05/04 08:33:39;;;;;;;5.50;1.80;;;15.40;53.00;;;;;;4986467;28;20034;-77
2023/05/04 08:36:06;;;;;;;4.38;1.40;;;15.50;54.10;;;;;;4990098;28;20478;-76
2023/05/04 08:38:32;;;;;;;5.88;1.58;;;15.40;52.30;;;;;;4994515;28;20022;-76
2023/05/04 08:41:03;;;;;;;4.78;1.52;;;15.50;52.50;;;;;;4989233;28;20372;-75
2023/05/04 08:43:29;;;;;;;5.75;1.38;;;15.40;52.20;;;;;;4994001;28;20037;-75
2023/05/04 08:45:55;;;;;;;5.70;1.75;;;15.40;52.60;;;;;;5002764;28;20065;-75
2023/05/04 08:48:21;;;;;;;8.80;2.00;;;15.50;51.00;;;;;;4993917;28;20030;-76
2023/05/04 08:50:47;;;;;;;5.75;1.67;;;15.40;52.00;;;;;;4989269;28;20038;-76
2023/05/04 08:53:14;;;;;;;3.72;1.42;;;15.50;52.40;;;;;;4989227;28;20045;-75
2023/05/04 08:55:42;;;;;;;4.53;1.33;;;16.00;52.70;;;;;;4975118;28;20446;-75
2023/05/04 08:58:10;;;;;;;2.90;1.30;;;16.00;51.20;;;;;;4995260;28;20026;-75
2023/05/04 09:00:37;;;;;;;6.32;1.67;;;16.20;51.70;;;;;;4993868;28;20368;-75
2023/05/04 09:03:04;;;;;;;7.25;1.65;;;16.40;51.90;;;;;;4990247;28;20022;-75
2023/05/04 09:05:30;;;;;;;7.47;1.30;;;16.70;50.30;;;;;;4992904;28;20506;-75
2023/05/04 09:07:57;;;;;;;6.78;1.80;;;16.30;49.00;;;;;;5002641;28;20185;-76
2023/05/04 09:10:23;;;;;;;5.70;1.70;;;16.60;51.40;;;;;;4991535;28;20474;-76
2023/05/04 09:12:49;;;;;;;6.35;1.63;;;16.40;51.10;;;;;;4987924;28;20027;-75
2023/05/04 09:15:16;;;;;;;7.35;1.40;;;16.40;49.80;;;;;;4974606;28;20160;-76
2023/05/04 09:17:42;;;;;;;8.25;1.98;;;16.00;50.70;;;;;;5003611;28;20113;-75
2023/05/04 09:20:08;;;;;;;6.15;1.65;;;16.30;50.40;;;;;;4987965;28;20093;-76
2023/05/04 09:22:34;;;;;;;6.00;1.70;;;16.30;49.60;;;;;;4986940;28;20030;-76
2023/05/04 09:25:11;;;;;;;6.53;1.73;;;16.30;49.10;;;;;;4966547;28;20031;-76
2023/05/04 09:27:40;;;;;;;6.28;1.92;;;16.60;48.90;;;;;;4982989;28;20027;-76
2023/05/04 09:30:06;;;;;;;3.80;1.50;;;16.60;48.40;;;;;;4989896;28;20565;-75
2023/05/04 09:32:43;;;;;;;8.00;2.00;;;16.50;48.80;;;;;;4991557;28;20054;-75
2023/05/04 09:35:09;;;;;;;5.00;1.20;;;17.00;47.30;;;;;;4988555;28;20038;-76
2023/05/04 09:37:44;;;;;;;6.68;1.60;;;16.60;47.50;;;;;;4984658;28;20092;-76
2023/05/04 09:40:10;;;;;;;5.07;1.42;;;17.20;50.90;;;;;;4988931;28;20037;-76
2023/05/04 09:42:36;;;;;;;6.07;1.90;;;17.20;46.50;;;;;;4976702;28;20142;-75
2023/05/04 09:45:03;;;;;;;6.95;1.70;;;16.90;47.80;;;;;;4985860;28;20106;-76
2023/05/04 09:47:37;;;;;;;9.85;1.80;;;17.40;47.30;;;;;;4988657;28;20026;-76
2023/05/04 09:50:12;;;;;;;6.03;1.73;;;17.50;48.20;;;;;;4987983;28;20054;-76
2023/05/04 09:52:39;;;;;;;7.53;1.70;;;16.80;47.50;;;;;;4991967;28;20455;-75
2023/05/04 09:55:06;;;;;;;5.95;1.30;;;17.40;48.50;;;;;;4995297;28;20675;-76
2023/05/04 09:57:34;;;;;;;4.10;1.52;;;17.10;47.60;;;;;;4995576;28;20097;-75
2023/05/04 10:00:01;;;;;;;7.22;1.50;;;17.30;47.10;;;;;;4995339;28;20032;-76
2023/05/04 10:02:27;;;;;;;9.18;1.77;;;17.30;46.60;;;;;;4991532;28;20050;-76
2023/05/04 10:04:55;;;;;;;7.63;1.60;;;17.70;46.90;;;;;;4988123;28;20081;-75
2023/05/04 10:07:21;;;;;;;7.90;1.63;;;18.20;46.40;;;;;;4992922;28;20344;-76
2023/05/04 10:09:48;;;;;;;7.57;1.50;;;18.60;45.50;;;;;;4998816;28;20030;-76
2023/05/04 10:12:14;;;;;;;5.38;1.33;;;18.90;44.60;;;;;;4989111;28;20018;-76
2023/05/04 10:14:41;;;;;;;4.90;1.17;;;18.30;44.40;;;;;;4989194;28;20053;-76
2023/05/04 10:17:44;;;;;;;5.93;1.88;;;18.90;44.80;;;;;;4991529;28;20023;-75
2023/05/04 10:20:37;;;;;;;5.22;1.60;;;19.30;42.90;;;;;;4987013;28;20061;-75
2023/05/04 10:23:46;;;;;;;7.30;1.77;;;19.20;44.50;;;;;;5004337;28;20044;-76
2023/05/04 10:26:49;;;;;;;5.28;1.55;;;18.50;41.60;;;;;;4977470;28;20038;-76
2023/05/04 10:29:27;;;;;;;5.20;1.75;;;18.10;44.80;;;;;;4994312;28;20046;-76
2023/05/04 10:31:53;;;;;;;4.55;1.50;;;18.30;44.00;;;;;;4993961;28;20029;-76
2023/05/04 10:34:27;;;;;;;4.65;1.50;;;17.70;45.70;;;;;;4992757;28;20034;-76
2023/05/04 10:36:53;;;;;;;7.50;1.52;;;18.00;45.00;;;;;;4985597;28;20415;-76
2023/05/04 10:39:23;;;;;;;5.22;1.90;;;17.80;45.60;;;;;;4993651;28;20108;-78
2023/05/04 10:42:03;;;;;;;6.10;1.80;;;17.40;46.70;;;;;;4972296;28;20038;-76
2023/05/04 10:44:47;;;;;;;4.32;1.77;;;17.70;47.10;;;;;;4987244;28;20033;-76
2023/05/04 10:47:12;;;;;;;6.55;1.70;;;17.90;46.70;;;;;;4983247;28;20080;-76
2023/05/04 10:49:38;;;;;;;6.38;1.67;;;17.50;46.60;;;;;;4976455;28;20493;-76
2023/05/04 10:52:07;;;;;;;5.75;1.42;;;17.20;45.70;;;;;;4985542;28;20050;-76
2023/05/04 10:54:36;;;;;;;5.60;1.60;;;17.50;46.50;;;;;;4984068;28;20434;-76
2023/05/04 10:57:06;;;;;;;6.32;1.48;;;17.00;47.40;;;;;;4991136;28;20026;-76
2023/05/04 10:59:32;;;;;;;5.97;1.60;;;17.00;47.00;;;;;;4994716;28;20573;-76
2023/05/04 11:02:02;;;;;;;9.13;1.95;;;17.10;47.70;;;;;;4991813;28;20038;-76
2023/05/04 11:04:28;;;;;;;4.20;1.33;;;17.00;48.40;;;;;;4986843;28;20026;-76
2023/05/04 11:07:04;;;;;;;5.15;1.80;;;17.50;47.70;;;;;;4978442;28;20165;-76
2023/05/04 11:09:57;;;;;;;4.90;1.40;;;17.80;46.10;;;;;;4987333;28;20467;-76
2023/05/04 11:12:24;;;;;;;7.90;1.88;;;18.20;46.10;;;;;;4984125;28;20423;-76
2023/05/04 11:14:49;;;;;;;10.15;1.80;;;18.50;46.50;;;;;;4988076;28;20088;-78
2023/05/04 11:17:15;;;;;;;4.72;1.80;;;18.00;44.40;;;;;;4990271;28;20026;-77
2023/05/04 11:19:51;;;;;;;8.48;1.65;;;18.40;46.20;;;;;;4983816;28;22532;-76
2023/05/04 11:22:17;;;;;;;2.83;1.10;;;17.90;45.60;;;;;;4983097;28;20097;-76
2023/05/04 11:24:45;;;;;;;7.90;1.50;;;18.90;46.10;;;;;;4988051;28;20073;-76
2023/05/04 11:27:27;;;;;;;4.20;1.65;;;19.10;42.20;;;;;;4991740;28;20398;-76
2023/05/04 11:30:01;;;;;;;6.13;1.85;;;19.50;42.20;;;;;;4994474;28;20053;-77
2023/05/04 11:32:45;;;;;;;6.88;1.98;;;19.70;42.50;;;;;;4984610;28;20022;-77
2023/05/04 11:35:15;;;;;;;5.78;2.05;;;20.00;42.10;;;;;;4985282;28;20360;-77
2023/05/04 11:37:42;;;;;;;6.00;1.50;;;20.00;41.00;;;;;;4986947;28;20026;-77
2023/05/04 11:40:12;;;;;;;4.18;1.48;;;19.80;40.80;;;;;;4994387;28;20022;-76
2023/05/04 11:42:41;;;;;;;;;;;20.00;41.90;;;;;;4991413;28;20011;-77
2023/05/04 11:45:17;;;;;;;5.00;1.73;;;20.00;41.90;;;;;;4988830;28;19921;-77
2023/05/04 11:47:44;;;;;;;8.02;3.15;;;20.00;39.70;;;;;;4991146;28;20045;-76
2023/05/04 11:50:11;;;;;;;6.93;1.63;;;19.90;40.00;;;;;;4978895;28;20043;-77
2023/05/04 11:52:39;;;;;;;5.85;1.48;;;20.50;41.20;;;;;;4989686;28;20056;-76
2023/05/04 11:55:07;;;;;;;12.23;1.27;;;20.90;39.70;;;;;;4991051;28;20022;-77
2023/05/04 11:57:35;;;;;;;6.40;1.65;;;20.90;37.60;;;;;;4986880;28;20209;-77
2023/05/04 12:00:05;;;;;;;5.15;1.52;;;21.00;39.10;;;;;;4990375;28;20026;-77
2023/05/04 12:02:31;;;;;;;7.15;1.55;;;20.70;39.50;;;;;;4985950;28;20371;-74
2023/05/04 12:04:57;;;;;;;4.35;1.55;;;21.40;40.90;;;;;;4986874;28;20031;-74
2023/05/04 12:07:23;;;;;;;4.07;1.50;;;20.60;37.70;;;;;;4984641;28;20459;-74
2023/05/04 12:09:48;;;;;;;4.93;1.75;;;21.00;38.20;;;;;;4985279;28;20040;-74
2023/05/04 12:12:17;;;;;;;4.40;1.55;;;21.20;39.30;;;;;;4983745;28;20101;-74
2023/05/04 12:14:51;;;;;;;3.65;1.13;;;20.40;37.90;;;;;;4983022;28;20034;-74
2023/05/04 12:17:19;;;;;;;6.68;1.45;;;20.80;39.70;;;;;;4988994;28;20430;-74
2023/05/04 12:19:52;;;;;;;4.65;1.38;;;20.90;40.10;;;;;;4987746;28;20428;-75
2023/05/04 12:22:27;;;;;;;7.05;1.60;;;21.20;37.80;;;;;;4992874;28;20030;-75
2023/05/04 12:24:53;;;;;;;5.82;1.33;;;21.70;39.10;;;;;;4993772;28;20030;-73
2023/05/04 12:27:18;;;;;;;4.78;1.52;;;21.50;37.10;;;;;;4988705;28;20140;-74
2023/05/04 12:29:44;;;;;;;8.02;1.48;;;21.10;37.20;;;;;;4994263;28;20120;-74
2023/05/04 12:32:09;;;;;;;6.93;1.67;;;20.90;38.50;;;;;;4988959;28;20034;-75
2023/05/04 12:34:36;;;;;;;3.88;1.20;;;20.90;37.70;;;;;;4983777;28;20098;-74
2023/05/04 12:37:01;;;;;;;6.25;1.45;;;20.80;38.20;;;;;;4991985;28;20070;-73
2023/05/04 12:39:28;;;;;;;5.47;1.73;;;20.90;36.10;;;;;;4996447;28;20486;-74
2023/05/04 12:41:54;;;;;;;4.20;1.30;;;21.80;37.00;;;;;;4992924;28;20109;-73
2023/05/04 12:44:19;;;;;;;7.20;1.30;;;22.30;36.70;;;;;;4991710;28;20138;-75
2023/05/04 12:46:45;;;;;;;7.43;1.50;;;23.10;35.30;;;;;;4993566;28;20498;-75
2023/05/04 12:49:13;;;;;;;6.00;1.52;;;23.20;34.70;;;;;;4991364;28;20080;-76
2023/05/04 12:51:38;;;;;;;5.00;1.40;;;22.70;34.60;;;;;;4999006;28;20354;-77